03:54
Airports
History
Links
Donate
Help keep this website running!
PayPal
Bitcoin
Information on this page is community maintained and may be outdated or inaccurate and is intended for reference only or PC simulator navigating!
Always use approved charts for navigating.
EDSL
Blumberg
Blumberg (EDSL)
Blumberg, Baden-Wurttemberg, Germany (78176)
(C)
Lat/Lng:47° 50' 38.94" N / 8° 33' 52.78" E
47.844149 / 8.564661
Elevation:2300'ft 701mMSL
ID / ICAO:EDSL
Runways:1
Longest:(06-24) 1,013.9m 3,326ft
Controlled:Yes
Distance To
Airport ID:
Airport Radio Frequencies
Tower: 123.05
Nearby VORs <50NM
Nearby NDBs
Nearby WeatherUpdated 03-25-17 03:50 GMT
Nearby weather at LSZH, Zurich located 26.3 nautical miles from EDSL
Altimeter: 30.21
Visibility: 6.2 statute miles
Wind: 9 knots (040°)
Temp: 8°c 46°f
Humidity: 81.3%

METAR: LSZH 250350Z 04009KT 9999 FEW015 BKN016 08/05 Q1023 NOSIG

(Powered by phpweather)
Runway 06 / 24
Dimensions:1013.9 x 50m 3326' x 164'ft
Surface:
Runway 06 [A]Runway 24 [B]
Heading:066°TH 246°TH
Lat:
Lng:
47° 50' 32.42"N
8° 33' 30.44"E
47° 50' 45.45"N
8° 34' 15.12"E
Google Map
Nearby Airports
(U) DONAUESCHINGEN VILLINGEN 9.2 NM
EDTD NNW 347°
4 Schaffhausen 10.8 NM
LSPF S 189°
(U) Schwenningen 15.3 NM
EDTS N
(U) NEUHAUSEN OB ECK 18.2 NM
EDSN ENE 59°
4 Winterthur 24.7 NM
LSPH SSE 157°
(U) Rottweil Zepfenhahn 24.8 NM
EDSZ NNE 17°
(C) Zurich 26.3 NM
LSZH (WX) S 181°
VFR Chart
Flight Planning at SkyVector.com